Time;durP1;ratioP1;P1;durP2;ratioP2;P2;SDS_P1;SDS_P2;PMS_P1;PMS_P2;Temp;Humidity;BMP_temperature;BMP_pressure;BME280_temperature;BME280_humidity;BME280_pressure;Samples;Min_cycle;Max_cycle;Signal;HPM_P1;HPM_P2
2022/02/19 00:00:50;;;;;;;;;1.75;0.00;;;;;7.39;55.58;101323.44;6282767;22;45544;-88
2022/02/19 00:03:19;;;;;;;;;0.00;0.00;;;;;7.19;55.29;101292.53;6254152;22;45477;-89
2022/02/19 00:05:44;;;;;;;;;0.50;0.00;;;;;7.35;55.38;101330.34;6255712;22;45576;-86
2022/02/19 00:08:11;;;;;;;;;3.25;1.50;;;;;7.26;55.40;101348.50;6282842;22;45376;-86
2022/02/19 00:10:37;;;;;;;;;0.75;0.00;;;;;7.31;55.83;101352.09;6256749;22;45352;-86
2022/02/19 00:13:02;;;;;;;;;1.00;0.00;;;;;7.12;56.08;101319.44;6256160;22;45407;-84
2022/02/19 00:15:30;;;;;;;;;3.00;1.00;;;;;7.26;56.05;101349.38;6253711;22;45767;-87
2022/02/19 00:17:55;;;;;;;;;2.25;0.50;;;;;7.04;56.13;101321.00;6254718;22;46775;-88
2022/02/19 00:20:21;;;;;;;;;1.50;1.00;;;;;7.12;56.30;101344.75;6256363;22;45815;-88
2022/02/19 00:22:47;;;;;;;;;1.00;1.00;;;;;7.20;56.37;101356.25;6283454;22;45002;-87
2022/02/19 00:25:12;;;;;;;;;2.00;1.00;;;;;7.17;56.27;101364.03;6255345;22;45876;-87
2022/02/19 00:27:38;;;;;;;;;4.00;1.00;;;;;7.14;56.33;101367.47;6282762;22;45480;-84
2022/02/19 00:30:06;;;;;;;;;1.00;0.00;;;;;7.06;56.53;101350.72;6253061;22;45142;-88
2022/02/19 00:32:32;;;;;;;;;0.50;0.50;;;;;7.01;56.60;101344.53;6281679;22;45415;-86
2022/02/19 00:34:57;;;;;;;;;0.00;0.00;;;;;7.01;56.45;101342.78;6276689;22;45560;-87
2022/02/19 00:37:23;;;;;;;;;1.00;1.00;;;;;7.15;56.76;101366.63;6279096;22;45445;-85
2022/02/19 00:39:48;;;;;;;;;3.00;0.75;;;;;7.03;57.06;101366.34;6281541;22;45422;-85
2022/02/19 00:42:14;;;;;;;;;1.00;1.00;;;;;7.04;56.86;101371.63;6256326;22;45398;-87
2022/02/19 00:44:40;;;;;;;;;2.50;2.00;;;;;7.07;57.00;101381.28;6282624;22;45896;-88
2022/02/19 00:47:05;;;;;;;;;0.50;0.50;;;;;7.05;56.77;101380.38;6252849;22;47721;-87
2022/02/19 00:49:31;;;;;;;;;5.00;1.00;;;;;7.01;56.79;101381.16;6253250;22;45868;-88
2022/02/19 00:51:57;;;;;;;;;2.25;1.00;;;;;6.99;57.04;101382.88;6282218;22;45367;-87
2022/02/19 00:54:23;;;;;;;;;0.75;0.25;;;;;7.00;56.75;101387.22;6281723;22;45525;-88
2022/02/19 00:56:48;;;;;;;;;2.00;2.00;;;;;6.91;56.76;101379.19;6255233;22;47623;-89
2022/02/19 00:59:14;;;;;;;;;1.00;1.00;;;;;7.01;56.90;101402.09;6283560;22;45333;-88
2022/02/19 01:01:39;;;;;;;;;0.75;0.25;;;;;6.90;56.66;101386.16;6282274;22;45289;-88
2022/02/19 01:04:05;;;;;;;;;1.00;1.00;;;;;6.96;56.89;101404.63;6256669;22;45340;-85
2022/02/19 01:06:32;;;;;;;;;1.00;1.00;;;;;6.87;57.00;101382.59;6254986;22;47003;-83
2022/02/19 01:08:58;;;;;;;;;1.25;0.50;;;;;6.87;56.73;101378.25;6279650;22;45446;-83
2022/02/19 01:11:23;;;;;;;;;5.25;1.50;;;;;6.88;56.73;101389.59;6252965;22;45280;-82
2022/02/19 01:13:49;;;;;;;;;1.25;1.00;;;;;6.89;56.79;101400.09;6254879;22;45423;-82
2022/02/19 01:16:15;;;;;;;;;2.00;0.75;;;;;6.82;56.88;101392.97;6253739;22;47919;-81
2022/02/19 01:18:41;;;;;;;;;0.50;0.50;;;;;6.91;57.11;101427.19;6280757;22;45874;-84
2022/02/19 01:21:06;;;;;;;;;1.50;0.50;;;;;6.91;56.71;101427.19;6254810;22;44786;-84
2022/02/19 01:23:32;;;;;;;;;3.00;2.00;;;;;6.89;56.77;101410.56;6284766;22;45413;-84
2022/02/19 01:25:58;;;;;;;;;2.00;1.00;;;;;6.80;56.91;101410.38;6283224;22;45189;-85
2022/02/19 01:28:23;;;;;;;;;0.25;0.25;;;;;6.87;56.79;101419.22;6253183;22;45237;-82
2022/02/19 01:30:49;;;;;;;;;1.00;1.00;;;;;6.88;57.17;101415.78;6281261;22;45280;-83
2022/02/19 01:33:14;;;;;;;;;3.00;3.00;;;;;6.87;57.08;101420.13;6281372;22;45522;-81
2022/02/19 01:35:40;;;;;;;;;1.00;1.00;;;;;6.87;57.01;101429.69;6284052;22;45284;-84
2022/02/19 01:38:05;;;;;;;;;3.50;1.75;;;;;6.85;57.23;101429.69;6281768;22;45303;-84
2022/02/19 01:40:31;;;;;;;;;1.75;1.00;;;;;6.72;57.18;101399.72;6255053;22;45271;-84
2022/02/19 01:42:57;;;;;;;;;3.25;1.00;;;;;6.75;57.40;101414.63;6282411;22;45309;-84
2022/02/19 01:45:22;;;;;;;;;0.00;0.00;;;;;6.83;57.30;101431.38;6283289;22;46030;-84
2022/02/19 01:47:48;;;;;;;;;1.00;1.00;;;;;6.70;57.63;101403.16;6282723;22;45346;-84
2022/02/19 01:50:13;;;;;;;;;1.00;0.75;;;;;6.68;57.72;101399.63;6283255;22;45196;-81
2022/02/19 01:52:42;;;;;;;;;2.50;1.75;;;;;6.79;57.49;101438.28;6253842;22;45223;-84
2022/02/19 01:55:10;;;;;;;;;2.25;1.25;;;;;6.75;58.04;101438.16;6281469;22;46255;-84
2022/02/19 01:57:36;;;;;;;;;2.00;2.00;;;;;6.65;58.09;101426.59;6254982;22;45207;-83
2022/02/19 02:00:05;;;;;;;;;2.75;0.50;;;;;6.56;57.94;101415.94;6283810;22;45409;-84
2022/02/19 02:02:31;;;;;;;;;1.25;1.25;;;;;6.71;58.13;101436.31;6255295;22;45458;-84
2022/02/19 02:04:56;;;;;;;;;1.00;1.00;;;;;6.69;58.27;101430.19;6283524;22;45545;-84
2022/02/19 02:07:22;;;;;;;;;1.00;0.00;;;;;6.74;58.30;101452.97;6282388;22;45256;-82
2022/02/19 02:09:48;;;;;;;;;3.00;1.00;;;;;6.62;58.37;101430.00;6255856;22;45221;-85
2022/02/19 02:12:14;;;;;;;;;4.00;1.00;;;;;6.54;58.55;101415.88;6258204;22;45829;-84
2022/02/19 02:14:41;;;;;;;;;0.50;0.00;;;;;6.51;58.37;101409.69;6258981;22;47702;-83
2022/02/19 02:17:09;;;;;;;;;1.00;1.00;;;;;6.65;58.63;101439.66;6258438;22;45360;-84
2022/02/19 02:19:35;;;;;;;;;1.00;0.00;;;;;6.56;58.49;101429.00;6285743;22;45239;-84
2022/02/19 02:22:05;;;;;;;;;0.50;0.00;;;;;6.50;58.54;101426.25;6256975;22;45995;-84
2022/02/19 02:24:36;;;;;;;;;2.00;2.00;;;;;6.66;58.70;101470.25;6280872;22;47135;-84
2022/02/19 02:27:07;;;;;;;;;0.25;0.25;;;;;6.59;58.63;101450.88;6254792;22;45205;-84
2022/02/19 02:29:39;;;;;;;;;0.00;0.00;;;;;6.62;58.90;101453.56;6283459;22;45389;-82
2022/02/19 02:32:05;;;;;;;;;0.00;0.00;;;;;6.56;58.74;101448.19;6282755;22;45153;-84
2022/02/19 02:34:31;;;;;;;;;1.00;1.00;;;;;6.49;58.78;101438.41;6255273;22;48002;-85
2022/02/19 02:36:56;;;;;;;;;0.75;0.75;;;;;6.42;59.10;101425.19;6282463;22;45497;-84
2022/02/19 02:39:22;;;;;;;;;3.75;0.75;;;;;6.50;58.80;101441.94;6256402;22;45398;-84
2022/02/19 02:41:47;;;;;;;;;1.50;0.25;;;;;6.54;59.18;101454.22;6254984;22;45244;-84
2022/02/19 02:44:13;;;;;;;;;1.00;0.75;;;;;6.44;59.20;101440.03;6283053;22;46289;-83
2022/02/19 02:46:38;;;;;;;;;3.75;1.75;;;;;6.32;59.66;101422.31;6254678;22;45296;-84
2022/02/19 02:49:04;;;;;;;;;1.00;1.00;;;;;6.47;59.58;101468.00;6282517;22;45168;-84
2022/02/19 02:51:31;;;;;;;;;3.00;0.75;;;;;6.36;59.41;101441.59;6254694;22;45494;-85
2022/02/19 02:53:56;;;;;;;;;0.00;0.00;;;;;6.19;59.68;101428.97;6256282;22;47206;-84
2022/02/19 02:56:22;;;;;;;;;0.25;0.00;;;;;6.24;59.87;101443.91;6281725;22;45152;-84
2022/02/19 02:58:50;;;;;;;;;1.00;0.25;;;;;6.36;59.67;101462.50;6279956;22;45125;-84
2022/02/19 03:01:15;;;;;;;;;1.75;0.50;;;;;6.32;59.71;101458.06;6253956;22;45405;-84
2022/02/19 03:03:41;;;;;;;;;2.25;0.00;;;;;6.28;59.78;101449.25;6281279;22;45251;-83
2022/02/19 03:06:06;;;;;;;;;1.00;0.00;;;;;6.13;59.97;101430.56;6253101;22;45412;-85
2022/02/19 03:08:33;;;;;;;;;0.75;0.75;;;;;6.30;60.43;101472.81;6281537;22;45453;-84
2022/02/19 03:10:59;;;;;;;;;1.75;1.00;;;;;6.21;60.30;101454.28;6282571;22;45228;-84
2022/02/19 03:13:24;;;;;;;;;1.00;1.00;;;;;6.25;60.30;101477.91;6254855;22;48103;-84
2022/02/19 03:15:50;;;;;;;;;0.25;0.00;;;;;6.25;60.12;101477.91;6255307;22;45291;-84
2022/02/19 03:18:17;;;;;;;;;1.00;0.50;;;;;6.04;60.44;101444.28;6255352;22;45346;-84
2022/02/19 03:20:43;;;;;;;;;2.25;1.00;;;;;6.15;60.37;101473.31;6282926;22;45090;-84
2022/02/19 03:23:08;;;;;;;;;1.25;0.25;;;;;6.02;60.63;101451.19;6254520;22;47368;-84
2022/02/19 03:25:36;;;;;;;;;0.00;0.00;;;;;6.22;60.61;101495.25;6249802;22;45205;-82
2022/02/19 03:28:02;;;;;;;;;0.00;0.00;;;;;6.08;60.83;101474.00;6250855;22;45378;-84
2022/02/19 03:30:27;;;;;;;;;2.00;1.50;;;;;6.20;60.82;101497.81;6253153;22;45337;-85
2022/02/19 03:32:54;;;;;;;;;1.00;1.00;;;;;6.14;60.70;101500.28;6252072;22;47254;-83
2022/02/19 03:35:19;;;;;;;;;4.25;1.25;;;;;6.01;60.78;101469.44;6278766;22;45357;-85
2022/02/19 03:37:45;;;;;;;;;2.75;0.00;;;;;5.94;61.38;101461.44;6278400;22;45602;-84
2022/02/19 03:40:11;;;;;;;;;2.00;0.50;;;;;6.05;60.65;101490.47;6278379;22;45747;-84
2022/02/19 03:42:40;;;;;;;;;2.00;1.00;;;;;6.13;60.86;101509.00;6251776;22;46294;-85
2022/02/19 03:45:09;;;;;;;;;2.00;1.50;;;;;6.07;61.23;101491.41;6278667;22;45197;-84
2022/02/19 03:47:35;;;;;;;;;1.25;0.00;;;;;6.04;61.01;101493.94;6254480;22;44657;-84
2022/02/19 03:50:02;;;;;;;;;1.50;1.00;;;;;5.93;61.23;101480.59;6279344;22;45225;-84
2022/02/19 03:52:27;;;;;;;;;2.50;1.75;;;;;6.10;61.06;101509.78;6279050;22;48219;-84
2022/02/19 03:54:53;;;;;;;;;1.50;1.00;;;;;5.90;61.03;101490.91;6280394;22;45228;-83
2022/02/19 03:57:18;;;;;;;;;0.00;0.00;;;;;5.97;61.08;101497.22;6281966;22;45479;-83
2022/02/19 03:59:44;;;;;;;;;1.00;0.00;;;;;5.90;61.51;101484.81;6256239;22;45190;-84
2022/02/19 04:02:09;;;;;;;;;1.50;0.75;;;;;5.93;61.75;101496.28;6257105;22;46236;-83
2022/02/19 04:04:35;;;;;;;;;2.00;0.50;;;;;6.04;61.35;101517.47;6283290;22;45204;-84
2022/02/19 04:07:00;;;;;;;;;0.00;0.00;;;;;5.85;61.30;101475.94;6255873;22;44763;-84
2022/02/19 04:09:26;;;;;;;;;3.00;0.75;;;;;5.83;61.62;101482.88;6259357;22;45437;-84
2022/02/19 04:11:51;;;;;;;;;2.00;1.00;;;;;5.85;61.35;101492.50;6293368;22;47019;-83
2022/02/19 04:14:17;;;;;;;;;1.00;1.00;;;;;6.00;61.40;101519.94;6290383;22;45378;-83
2022/02/19 04:16:42;;;;;;;;;1.00;1.00;;;;;5.99;61.44;101516.47;6265918;22;44700;-85
2022/02/19 04:19:08;;;;;;;;;0.25;0.25;;;;;5.93;61.64;101505.78;6293695;22;45356;-85
2022/02/19 04:21:33;;;;;;;;;0.75;0.75;;;;;5.82;61.39;101497.66;6265810;22;45108;-84
2022/02/19 04:23:59;;;;;;;;;1.00;1.00;;;;;5.75;61.57;101486.16;6259348;22;44883;-84
2022/02/19 04:26:24;;;;;;;;;0.50;0.50;;;;;5.98;61.46;101525.13;6284131;22;45299;-84
2022/02/19 04:28:50;;;;;;;;;5.75;1.50;;;;;5.88;61.76;101510.91;6257283;22;45339;-84
2022/02/19 04:31:16;;;;;;;;;2.25;0.75;;;;;5.73;61.42;101497.41;6260431;22;45288;-84
2022/02/19 04:33:42;;;;;;;;;2.00;1.00;;;;;5.95;61.51;101538.13;6265277;22;45149;-84
2022/02/19 04:36:08;;;;;;;;;2.00;1.00;;;;;5.92;61.67;101531.03;6265517;22;44590;-84
2022/02/19 04:38:33;;;;;;;;;0.00;0.00;;;;;5.75;61.72;101525.34;6266966;22;45119;-84
2022/02/19 04:40:59;;;;;;;;;1.00;0.00;;;;;5.68;61.78;101517.28;6264561;22;45063;-84
2022/02/19 04:43:24;;;;;;;;;0.00;0.00;;;;;5.69;61.79;101519.03;6266956;22;44878;-84
2022/02/19 04:45:50;;;;;;;;;1.75;1.00;;;;;5.88;61.75;101568.41;6266425;22;45146;-83
2022/02/19 04:48:15;;;;;;;;;1.00;0.00;;;;;5.83;61.90;101569.09;6291254;22;45588;-83
2022/02/19 04:50:41;;;;;;;;;1.25;0.25;;;;;5.69;61.55;101542.56;6292526;22;46943;-83
2022/02/19 04:53:07;;;;;;;;;1.50;0.50;;;;;5.74;61.66;101564.47;6290669;22;45452;-84
2022/02/19 04:55:32;;;;;;;;;2.00;0.00;;;;;5.74;61.34;101565.34;6254972;22;45291;-82
2022/02/19 04:57:58;;;;;;;;;1.25;0.75;;;;;5.75;61.74;101566.28;6281834;22;45271;-84
2022/02/19 05:00:24;;;;;;;;;0.50;0.00;;;;;5.65;61.82;101557.25;6256444;22;46412;-83
2022/02/19 05:02:49;;;;;;;;;1.00;1.00;;;;;5.87;61.70;101597.97;6282460;22;45239;-84
2022/02/19 05:05:15;;;;;;;;;0.00;0.00;;;;;5.84;61.53;101591.78;6255407;22;45270;-84
2022/02/19 05:07:40;;;;;;;;;0.50;0.00;;;;;5.83;61.63;101583.06;6279999;22;45414;-84
2022/02/19 05:10:07;;;;;;;;;1.75;1.25;;;;;5.77;61.64;101584.59;6254043;22;45321;-83
2022/02/19 05:12:33;;;;;;;;;1.00;0.00;;;;;5.83;61.82;101606.56;6252091;22;45183;-83
2022/02/19 05:14:59;;;;;;;;;3.50;0.25;;;;;5.73;61.73;101591.44;6251010;22;45264;-84
2022/02/19 05:17:24;;;;;;;;;2.00;1.00;;;;;5.61;61.76;101568.44;6250722;22;45176;-84
2022/02/19 05:19:50;;;;;;;;;1.75;0.75;;;;;5.80;61.82;101609.09;6273897;22;46178;-85
2022/02/19 05:22:16;;;;;;;;;1.50;1.50;;;;;5.65;61.80;101586.00;6248962;22;45110;-84
2022/02/19 05:24:42;;;;;;;;;0.75;0.75;;;;;5.73;61.63;101605.41;6265300;22;45326;-84
2022/02/19 05:27:08;;;;;;;;;1.00;0.00;;;;;5.81;62.02;101615.19;6282227;22;45173;-85
2022/02/19 05:29:33;;;;;;;;;2.25;2.25;;;;;5.72;61.62;101602.72;6282730;22;45251;-84
2022/02/19 05:31:59;;;;;;;;;1.50;0.25;;;;;5.65;62.02;101590.34;6282756;22;45275;-83
2022/02/19 05:34:24;;;;;;;;;0.75;0.75;;;;;5.64;61.88;101579.00;6282610;22;45224;-84
2022/02/19 05:36:49;;;;;;;;;1.25;1.00;;;;;5.64;61.73;101580.72;6281690;22;45283;-84
2022/02/19 05:39:16;;;;;;;;;2.00;2.00;;;;;5.75;61.51;101605.47;6254043;22;48136;-83
2022/02/19 05:41:41;;;;;;;;;4.50;1.25;;;;;5.72;61.95;101601.03;6282248;22;45215;-84
2022/02/19 05:44:07;;;;;;;;;0.00;0.00;;;;;5.68;61.79;101596.53;6255001;22;45192;-84
2022/02/19 05:46:36;;;;;;;;;1.00;1.00;;;;;5.64;61.86;101585.94;6255116;22;45209;-83
2022/02/19 05:49:03;;;;;;;;;0.00;0.00;;;;;5.78;61.71;101608.16;6282765;22;45318;-83
2022/02/19 05:51:29;;;;;;;;;2.00;1.00;;;;;5.72;61.72;101605.34;6253904;22;45363;-84
2022/02/19 05:53:55;;;;;;;;;2.75;1.00;;;;;5.74;61.43;101611.50;6253619;22;45382;-83
2022/02/19 05:56:21;;;;;;;;;1.00;1.00;;;;;5.61;61.85;101583.25;6254000;22;45276;-84
2022/02/19 05:58:46;;;;;;;;;1.00;1.00;;;;;5.73;61.62;101612.34;6254240;22;47231;-84
2022/02/19 06:01:12;;;;;;;;;0.00;0.00;;;;;5.63;62.30;101600.72;6280863;22;45248;-84
2022/02/19 06:03:40;;;;;;;;;0.50;0.50;;;;;5.56;62.02;101588.34;6254205;22;45205;-83
2022/02/19 06:06:07;;;;;;;;;1.00;1.00;;;;;5.69;62.08;101613.09;6282983;22;45404;-84
2022/02/19 06:08:32;;;;;;;;;5.00;1.50;;;;;5.51;62.19;101580.38;6279209;22;46965;-84
2022/02/19 06:10:58;;;;;;;;;3.25;0.50;;;;;5.47;62.28;101573.25;6282562;22;45271;-84
2022/02/19 06:13:23;;;;;;;;;1.00;1.00;;;;;5.59;62.01;101601.50;6253947;22;45382;-83
2022/02/19 06:15:49;;;;;;;;;1.50;1.50;;;;;5.50;62.24;101590.75;6253856;22;45480;-84
2022/02/19 06:18:15;;;;;;;;;1.50;1.00;;;;;5.66;61.96;101624.31;6256331;22;46993;-83
2022/02/19 06:20:40;;;;;;;;;0.50;0.50;;;;;5.65;61.95;101625.19;6285209;22;45270;-83
2022/02/19 06:23:07;;;;;;;;;4.25;2.00;;;;;5.48;62.08;101603.78;6284590;22;45142;-83
2022/02/19 06:25:33;;;;;;;;;2.00;1.00;;;;;5.63;62.00;101625.97;6282062;22;45163;-82
2022/02/19 06:27:59;;;;;;;;;2.00;1.25;;;;;5.61;62.21;101623.28;6280011;22;48091;-83
2022/02/19 06:30:24;;;;;;;;;1.00;1.00;;;;;5.55;62.27;101619.63;6255103;22;45185;-83
2022/02/19 06:32:50;;;;;;;;;1.50;1.50;;;;;5.43;62.06;101605.34;6282542;22;45182;-83
2022/02/19 06:35:16;;;;;;;;;1.00;0.00;;;;;5.52;62.01;101626.53;6255803;22;45508;-82
2022/02/19 06:37:43;;;;;;;;;3.00;1.75;;;;;5.45;62.06;101621.06;6254394;22;46674;-83
2022/02/19 06:40:11;;;;;;;;;0.00;0.00;;;;;5.36;62.16;101610.34;6280706;22;45278;-84
2022/02/19 06:42:37;;;;;;;;;0.75;0.00;;;;;5.43;61.79;101634.09;6278204;22;45341;-84
2022/02/19 06:45:04;;;;;;;;;1.00;1.00;;;;;5.34;62.51;101618.09;6250914;22;45422;-84
2022/02/19 06:47:31;;;;;;;;;1.00;1.00;;;;;5.27;62.31;101614.44;6275876;22;46060;-84
2022/02/19 06:49:57;;;;;;;;;1.00;1.00;;;;;5.29;62.01;101619.69;6251312;22;45216;-84
2022/02/19 06:52:22;;;;;;;;;1.00;1.00;;;;;5.45;62.41;101652.38;6249917;22;45440;-84
2022/02/19 06:54:48;;;;;;;;;2.00;1.00;;;;;5.30;62.32;101644.97;6250848;22;45304;-85
2022/02/19 06:57:14;;;;;;;;;1.50;1.50;;;;;5.32;62.68;101645.91;6278329;22;46083;-84
2022/02/19 06:59:43;;;;;;;;;1.50;1.00;;;;;5.33;62.67;101654.63;6250400;22;45376;-84
2022/02/19 07:02:08;;;;;;;;;4.50;1.00;;;;;5.45;62.42;101683.72;6252695;22;45205;-84
2022/02/19 07:04:34;;;;;;;;;0.00;0.00;;;;;5.22;62.50;101636.88;6251858;22;45477;-84
2022/02/19 07:07:00;;;;;;;;;1.00;1.00;;;;;5.35;62.72;101669.50;6279339;22;45245;-85
2022/02/19 07:09:27;;;;;;;;;3.00;1.00;;;;;5.28;62.43;101657.09;6252153;22;45229;-84
2022/02/19 07:11:56;;;;;;;;;1.00;1.00;;;;;5.22;62.64;101654.28;6251822;22;45331;-85
2022/02/19 07:14:21;;;;;;;;;2.00;1.00;;;;;5.36;62.62;101673.00;6251881;22;45536;-84
2022/02/19 07:16:47;;;;;;;;;1.00;1.00;;;;;5.34;62.77;101679.88;6251703;22;46990;-84
2022/02/19 07:19:13;;;;;;;;;0.50;0.50;;;;;5.25;62.81;101663.09;6279813;22;45215;-85
2022/02/19 07:21:39;;;;;;;;;1.00;1.00;;;;;5.22;62.78;101660.38;6280083;22;45130;-84
2022/02/19 07:24:05;;;;;;;;;0.00;0.00;;;;;5.42;62.86;101691.47;6251615;22;45110;-85
2022/02/19 07:26:31;;;;;;;;;2.00;1.75;;;;;5.19;62.99;101665.50;6251447;22;47023;-85
2022/02/19 07:28:56;;;;;;;;;0.50;0.50;;;;;5.36;62.66;101686.94;6252515;22;45306;-85
2022/02/19 07:31:22;;;;;;;;;0.00;0.00;;;;;5.31;62.81;101676.34;6252039;22;45276;-85
2022/02/19 07:33:47;;;;;;;;;0.00;0.00;;;;;5.29;62.61;101678.03;6279506;22;45287;-84
2022/02/19 07:36:13;;;;;;;;;1.25;0.25;;;;;5.50;62.56;101716.09;6253406;22;46578;-85
2022/02/19 07:38:39;;;;;;;;;2.25;0.00;;;;;5.38;62.86;101687.88;6251764;22;45273;-87
2022/02/19 07:41:06;;;;;;;;;1.25;0.25;;;;;5.53;62.86;101710.97;6252361;22;45351;-84
2022/02/19 07:43:32;;;;;;;;;0.00;0.00;;;;;5.33;62.51;101685.97;6279724;22;45531;-85
2022/02/19 07:46:02;;;;;;;;;2.00;2.00;;;;;5.44;62.92;101701.13;6278443;22;45623;-85
2022/02/19 07:48:37;;;;;;;;;1.00;1.00;;;;;5.38;62.70;101694.84;6251828;22;45867;-90
2022/02/19 07:59:15;;;;;;;;;1.25;1.00;;;;;5.65;62.56;101729.66;6278539;22;45086;-83
2022/02/19 08:01:40;;;;;;;;;1.00;1.00;;;;;5.60;62.46;101733.84;6251204;22;45170;-86
2022/02/19 08:04:06;;;;;;;;;1.75;0.75;;;;;5.66;62.46;101727.94;6276579;22;45483;-85
2022/02/19 08:06:32;;;;;;;;;2.00;1.00;;;;;5.52;62.58;101706.59;6250307;22;45301;-86
2022/02/19 08:09:05;;;;;;;;;1.50;1.50;;;;;5.66;62.33;101725.31;6252062;22;45343;-89
2022/02/19 08:11:31;;;;;;;;;2.00;1.50;;;;;5.68;62.71;101728.88;6250736;22;45183;-88
2022/02/19 08:13:56;;;;;;;;;2.25;0.75;;;;;5.62;62.15;101724.34;6251920;22;45303;-85
2022/02/19 08:16:22;;;;;;;;;2.25;1.00;;;;;5.69;62.38;101723.72;6250943;22;47191;-86
2022/02/19 08:18:50;;;;;;;;;1.75;1.75;;;;;5.75;62.18;101741.31;6250863;22;45133;-87
2022/02/19 08:21:17;;;;;;;;;3.00;1.75;;;;;5.86;62.30;101755.59;6251690;22;45418;-86
2022/02/19 08:23:43;;;;;;;;;1.00;1.00;;;;;5.69;62.22;101726.34;6250794;22;45205;-86
2022/02/19 08:26:08;;;;;;;;;1.00;1.00;;;;;5.76;62.31;101714.34;6280559;22;45370;-89
2022/02/19 08:28:34;;;;;;;;;1.00;1.00;;;;;5.74;62.25;101713.38;6253266;22;45165;-87
2022/02/19 08:30:59;;;;;;;;;2.50;0.00;;;;;5.90;62.31;101730.44;6251514;22;45216;-88
2022/02/19 08:33:25;;;;;;;;;3.50;1.00;;;;;5.76;62.08;101709.09;6253057;22;45091;-88
2022/02/19 08:35:50;;;;;;;;;2.00;1.50;;;;;5.97;62.23;101735.06;6251035;22;47056;-88
2022/02/19 08:38:17;;;;;;;;;0.25;0.25;;;;;6.12;62.24;101752.94;6282089;22;45157;-90
2022/02/19 08:40:43;;;;;;;;;2.00;2.00;;;;;6.03;61.75;101729.13;6253779;22;45407;-90
2022/02/19 08:43:09;;;;;;;;;0.50;0.50;;;;;6.13;62.05;101752.09;6279333;22;45306;-89
2022/02/19 08:45:34;;;;;;;;;7.00;1.75;;;;;6.16;61.68;101753.06;6277743;22;47503;-89
2022/02/19 08:48:04;;;;;;;;;3.00;0.75;;;;;6.18;61.67;101746.19;6250024;22;45428;-90
2022/02/19 08:50:31;;;;;;;;;2.25;1.50;;;;;6.09;61.49;101732.81;6250405;22;45137;-89
2022/02/19 08:52:57;;;;;;;;;0.00;0.00;;;;;6.12;61.35;101732.94;6279526;22;45455;-88
2022/02/19 08:55:23;;;;;;;;;2.50;2.00;;;;;6.23;61.15;101753.25;6253828;22;46687;-87
2022/02/19 08:57:49;;;;;;;;;3.00;3.00;;;;;6.17;61.31;101733.03;6257233;22;45258;-87
2022/02/19 09:00:15;;;;;;;;;1.50;0.50;;;;;6.24;61.09;101742.84;6283566;22;44766;-85
2022/02/19 09:02:42;;;;;;;;;1.25;1.25;;;;;6.45;61.05;101779.22;6284312;22;45226;-89
2022/02/19 09:05:09;;;;;;;;;2.75;1.75;;;;;6.42;60.96;101765.19;6254683;22;47281;-89
2022/02/19 09:07:36;;;;;;;;;0.00;0.00;;;;;6.51;60.75;101786.38;6281157;22;45241;-86
2022/02/19 09:10:03;;;;;;;;;2.75;1.25;;;;;6.55;60.92;101791.75;6254258;22;45190;-85
2022/02/19 09:12:29;;;;;;;;;1.00;1.00;;;;;6.53;60.74;101780.34;6285059;22;45322;-87
2022/02/19 09:14:58;;;;;;;;;2.00;2.00;;;;;6.51;60.61;101757.59;6255286;22;47122;-91
2022/02/19 09:17:23;;;;;;;;;0.00;0.00;;;;;6.61;60.62;101778.84;6285684;22;45137;-86
2022/02/19 09:19:49;;;;;;;;;2.25;1.00;;;;;6.75;60.91;101781.84;6254548;22;45248;-89
2022/02/19 09:22:15;;;;;;;;;0.25;0.25;;;;;6.65;60.37;101745.78;6254933;22;45533;-87
2022/02/19 09:24:40;;;;;;;;;1.00;1.00;;;;;6.87;60.19;101781.31;6253630;22;47089;-87
2022/02/19 09:27:06;;;;;;;;;1.25;1.00;;;;;6.78;60.47;101752.25;6256436;22;45121;-87
2022/02/19 09:29:35;;;;;;;;;1.50;1.00;;;;;7.02;60.07;101783.47;6254860;22;45503;-86
2022/02/19 09:32:04;;;;;;;;;2.00;0.00;;;;;6.87;60.08;101749.91;6255842;22;45378;-87
2022/02/19 09:34:30;;;;;;;;;3.50;1.00;;;;;7.04;59.94;101766.94;6255230;22;47086;-82
2022/02/19 09:36:55;;;;;;;;;2.00;1.00;;;;;7.12;59.59;101761.03;6255775;22;45146;-86
2022/02/19 09:39:30;;;;;;;;;2.50;1.25;;;;;7.12;59.73;101756.69;6255541;22;45197;-86
2022/02/19 09:42:02;;;;;;;;;2.75;1.25;;;;;7.18;59.80;101756.84;6257081;22;45182;-87
2022/02/19 09:44:27;;;;;;;;;0.50;0.50;;;;;7.19;59.58;101748.16;6255148;22;47059;-86
2022/02/19 09:46:57;;;;;;;;;1.25;1.25;;;;;7.22;59.26;101744.75;6257130;22;45382;-86
2022/02/19 09:49:24;;;;;;;;;1.25;0.25;;;;;7.46;58.89;101768.94;6254336;22;44708;-87
2022/02/19 09:51:58;;;;;;;;;0.00;0.00;;;;;7.51;58.88;101767.31;6283959;22;45397;-87
2022/02/19 09:54:23;;;;;;;;;0.00;0.00;;;;;7.58;58.59;101776.22;6255416;22;47226;-86
2022/02/19 09:56:50;;;;;;;;;3.00;1.75;;;;;7.58;58.62;101775.31;6254238;22;45343;-86
2022/02/19 09:59:15;;;;;;;;;3.00;0.00;;;;;7.68;58.55;101780.84;6278649;22;45405;-87
2022/02/19 10:01:43;;;;;;;;;3.00;0.25;;;;;7.57;58.29;101739.50;6278388;22;45339;-87
2022/02/19 10:04:10;;;;;;;;;1.75;1.00;;;;;7.82;57.89;101761.94;6249786;22;47222;-85
2022/02/19 10:06:39;;;;;;;;;1.00;1.00;;;;;7.85;58.23;101754.16;6278023;22;45235;-86
2022/02/19 10:09:20;;;;;;;;;6.25;4.50;;;;;7.96;57.93;101750.03;6250208;22;45489;-85
2022/02/19 10:11:47;;;;;;;;;1.00;0.00;;;;;7.95;56.87;101732.53;6278051;22;45227;-84
2022/02/19 10:14:35;;;;;;;;;1.50;1.00;;;;;8.20;57.04;101754.06;6277190;22;46280;-86
2022/02/19 10:17:13;;;;;;;;;;;;;;;;;;;;;
2022/02/19 10:19:54;;;;;;;;;3.00;2.00;;;;;8.46;56.91;101750.31;6276664;22;69207;-84
2022/02/19 10:22:27;;;;;;;;;1.00;0.00;;;;;8.50;56.10;101731.16;6276271;22;45280;-84
2022/02/19 10:25:00;;;;;;;;;2.50;1.00;;;;;8.57;55.97;101722.53;6248778;22;46309;-86
2022/02/19 10:28:10;;;;;;;;;2.75;1.00;;;;;8.69;54.64;101714.03;6276315;22;45394;-86
2022/02/19 10:30:38;;;;;;;;;3.75;1.00;;;;;8.91;54.91;101752.09;6249231;22;45411;-88
2022/02/19 10:33:06;;;;;;;;;0.50;0.00;;;;;8.84;54.47;101718.69;6247182;22;45397;-82
2022/02/19 10:35:37;;;;;;;;;3.00;1.25;;;;;9.10;54.44;101734.94;6253852;22;47123;-89
2022/02/19 10:46:26;;;;;;;;;;;;;;;;;;;;;
2022/02/19 10:48:44;;;;;;;;;1.00;1.00;;;;;9.58;52.45;101713.00;6114767;23;46263;-88
2022/02/19 10:51:13;;;;;;;;;5.00;2.75;;;;;9.74;52.56;101723.75;6154583;23;45328;-87
2022/02/19 10:53:40;;;;;;;;;1.25;1.00;;;;;9.78;51.19;101715.03;6242949;22;45105;-86
2022/02/19 10:56:41;;;;;;;;;1.75;1.75;;;;;9.80;50.88;101710.69;6248954;22;45374;-90
2022/02/19 10:59:20;;;;;;;;;2.50;2.50;;;;;9.80;50.59;101706.31;6239325;22;46978;-92
2022/02/19 11:02:34;;;;;;;;;0.00;0.00;;;;;9.82;50.30;101701.97;6276829;22;45208;-92
2022/02/19 11:05:01;;;;;;;;;0.75;0.75;;;;;9.96;50.63;101717.06;6249308;22;45352;-87
2022/02/19 11:07:29;;;;;;;;;1.00;0.00;;;;;10.13;49.70;101734.88;6273499;22;45802;-93
2022/02/19 11:10:28;;;;;;;;;;;;;;;;;;;;;
2022/02/19 11:13:16;;;;;;;;;1.00;1.00;;;;;10.29;48.98;101708.78;6277232;22;71070;-91
2022/02/19 11:18:38;;;;;;;;;1.50;0.00;;;;;10.49;48.69;101711.66;6213579;22;45534;-85
2022/02/19 11:21:05;;;;;;;;;1.00;0.00;;;;;10.64;48.32;101711.88;6246917;22;47662;-85
2022/02/19 11:23:41;;;;;;;;;1.00;1.00;;;;;10.74;47.65;101728.63;6247571;22;45444;-87
2022/02/19 11:26:10;;;;;;;;;1.00;1.00;;;;;10.67;47.96;101692.59;6223133;22;45417;-89
2022/02/19 11:28:46;;;;;;;;;1.00;1.00;;;;;10.84;48.10;101704.16;6217715;22;45387;-90
2022/02/19 11:31:16;;;;;;;;;1.00;1.00;;;;;10.90;47.64;101688.41;6241334;22;45564;-88
2022/02/19 11:33:55;;;;;;;;;;;;;;;;;;;;;
2022/02/19 11:36:28;;;;;;;;;2.25;0.75;;;;;11.11;46.82;101692.13;6243139;22;68186;-90
2022/02/19 11:38:54;;;;;;;;;1.75;0.00;;;;;11.08;45.85;101678.94;6216179;22;44769;-89
2022/02/19 11:41:42;;;;;;;;;1.00;1.00;;;;;11.08;45.10;101671.91;6240141;22;46496;-88
2022/02/19 11:44:20;;;;;;;;;1.00;1.00;;;;;11.17;44.44;101677.28;6217407;22;45419;-86
2022/02/19 11:46:50;;;;;;;;;2.75;2.00;;;;;11.19;44.49;101672.88;6215673;22;45448;-90
2022/02/19 11:49:27;;;;;;;;;1.25;0.25;;;;;11.22;45.01;101659.72;6215530;22;45442;-87
2022/02/19 11:52:01;;;;;;;;;0.00;0.00;;;;;11.41;42.93;101668.69;6242286;22;46079;-86
2022/02/19 11:54:28;;;;;;;;;0.00;0.00;;;;;11.51;42.82;101667.00;6216028;22;45810;-85
2022/02/19 11:57:04;;;;;;;;;1.00;0.25;;;;;11.54;42.28;101651.19;6241712;22;45287;-87
2022/02/19 11:59:46;;;;;;;;;0.00;0.00;;;;;11.62;42.75;101654.75;6216925;22;45350;-86